This is the latest recevied weather packets stored in our database for station/object KC4JY. If no packets are shown the sender has not sent any weather packets the latest 1 day(s).
| Time | Temp. | Humidity | Pressure | Rain* | Wind** | Luminosity | Snow |
|---|---|---|---|---|---|---|---|
| 1836274724 | 20.56° C | 90% | 1017.8 hPa | 0 mm | 0 m/s | - | - |
| 1778057144 | 15° C | 88% | 1014.9 hPa | 0 mm | 0.89 m/s, 203° | - | - |
| 1778056235 | 15° C | 87% | 1014.8 hPa | 0 mm | 0.89 m/s, 196° | - | - |
| 1778055316 | 15° C | 88% | 1014.9 hPa | 0 mm | 0.45 m/s, 178° | - | - |
| 1778054418 | 14.44° C | 87% | 1015.2 hPa | 0 mm | 0.89 m/s, 215° | - | - |
| 1778053557 | 14.44° C | 87% | 1015.2 hPa | 0 mm | 1.34 m/s, 202° | - | - |
| 1778052660 | 15° C | 86% | 1014.9 hPa | 0 mm | 0.89 m/s, 192° | - | - |
| 1778051737 | 15° C | 85% | 1015.1 hPa | 0 mm | 0.45 m/s, 242° | - | - |
| 1778050836 | 15.56° C | 84% | 1015 hPa | 0 mm | 0.89 m/s, 207° | - | - |
| 1778049917 | 15.56° C | 84% | 1015.2 hPa | 0 mm | 0.89 m/s, 214° | - | - |
| 1778049027 | 15.56° C | 83% | 1015.2 hPa | 0 mm | 0.45 m/s, 215° | - | - |
| 1778048103 | 15.56° C | 83% | 1015.3 hPa | 0 mm | 0.89 m/s, 219° | - | - |
| 1778047202 | 16.11° C | 82% | 1015.6 hPa | 0 mm | 0.89 m/s, 205° | - | - |
| 1778046360 | 16.11° C | 81% | 1015.6 hPa | 0 mm | 1.79 m/s, 215° | - | - |
| 1778045456 | 16.11° C | 80% | 1015.8 hPa | 0 mm | 1.34 m/s, 215° | - | - |
| 1778044565 | 16.67° C | 80% | 1016.2 hPa | 0 mm | 1.79 m/s, 208° | - | - |
| 1778043668 | 16.67° C | 80% | 1016.3 hPa | 0 mm | 2.24 m/s, 202° | - | - |
| 1778042752 | 16.67° C | 80% | 1016.3 hPa | 0 mm | 2.24 m/s, 207° | - | - |
| 1778041847 | 16.11° C | 80% | 1016.5 hPa | 0 mm | 1.79 m/s, 217° | - | - |
| 1778040944 | 16.67° C | 79% | 1016.5 hPa | 0 mm | 1.79 m/s, 201° | - | - |
| 1778040044 | 16.67° C | 78% | 1016.6 hPa | 0 mm | 1.79 m/s, 200° | - | - |
| 1778039127 | 16.67° C | 77% | 1016.8 hPa | 0 mm | 1.79 m/s, 202° | - | - |
| 1778038223 | 16.67° C | 77% | 1016.7 hPa | 0 mm | 1.79 m/s, 225° | - | - |
| 1778037310 | 17.22° C | 75% | 1016.7 hPa | 0 mm | 1.34 m/s, 216° | - | - |
| 1778036410 | 17.22° C | 75% | 1016.7 hPa | 0 mm | 2.24 m/s, 226° | - | - |
* Rain latest hour (hover to see other rain measurements)
** Current wind speed in m/s (hover to see current wind gust speed)